createdAt,value
2023-11-08T00:00:56.561Z,78.97
2023-11-08T00:01:55.748Z,77.90
2023-11-08T00:02:52.798Z,76.90
2023-11-08T00:03:49.626Z,75.46
2023-11-08T00:04:46.363Z,75.42
2023-11-08T00:05:43.093Z,75.93
2023-11-08T00:06:40.420Z,76.35
2023-11-08T00:07:37.337Z,76.42
2023-11-08T00:08:34.017Z,76.45
2023-11-08T00:09:30.753Z,76.49
2023-11-08T00:10:27.893Z,76.10
2023-11-08T00:11:24.911Z,75.14
2023-11-08T00:12:21.800Z,76.16
2023-11-08T00:13:21.481Z,75.01
2023-11-08T00:14:18.170Z,76.17
2023-11-08T00:15:15.001Z,76.36
2023-11-08T00:16:12.769Z,76.44
2023-11-08T00:17:09.548Z,77.69
2023-11-08T00:18:07.024Z,77.59
2023-11-08T00:19:04.274Z,77.41
2023-11-08T00:20:00.948Z,77.54
2023-11-08T00:20:57.591Z,78.22
2023-11-08T00:21:54.296Z,79.63
2023-11-08T00:22:51.002Z,80.12
2023-11-08T00:23:47.601Z,79.66
2023-11-08T00:24:44.458Z,79.60
2023-11-08T00:25:41.163Z,79.83
2023-11-08T00:26:37.777Z,79.34
2023-11-08T00:27:34.562Z,78.11
2023-11-08T00:28:31.251Z,79.20
2023-11-08T00:29:28.693Z,78.78
2023-11-08T00:30:25.443Z,77.78
2023-11-08T00:31:22.059Z,77.88
2023-11-08T00:32:22.881Z,77.31
2023-11-08T00:33:19.833Z,78.40
2023-11-08T00:34:17.624Z,78.95
2023-11-08T00:35:14.919Z,78.66
2023-11-08T00:36:11.583Z,79.00
2023-11-08T00:37:10.561Z,78.95
2023-11-08T00:38:07.310Z,79.00
2023-11-08T00:39:06.921Z,78.83
2023-11-08T00:40:05.492Z,77.85
2023-11-08T00:41:02.135Z,78.58
2023-11-08T00:41:58.809Z,78.26
2023-11-08T00:42:55.707Z,78.46
2023-11-08T00:43:57.435Z,77.45
2023-11-08T00:44:54.149Z,76.96
2023-11-08T00:45:51.832Z,76.27
2023-11-08T00:46:48.514Z,76.93
2023-11-08T00:47:45.417Z,77.04
2023-11-08T00:48:42.833Z,78.45
2023-11-08T00:49:39.511Z,78.02
2023-11-08T00:50:36.180Z,77.62
2023-11-08T00:51:33.419Z,77.42
2023-11-08T00:52:30.182Z,76.36
2023-11-08T00:53:26.903Z,75.87
2023-11-08T00:54:23.681Z,75.58
2023-11-08T00:55:20.516Z,75.46
2023-11-08T00:56:17.610Z,76.17
2023-11-08T00:57:14.291Z,76.75
2023-11-08T00:58:11.094Z,77.02
2023-11-08T00:59:07.770Z,77.23
2023-11-08T01:00:09.129Z,76.99
2023-11-08T01:01:06.967Z,77.81
2023-11-08T01:02:04.633Z,77.06
2023-11-08T01:03:01.987Z,76.82
2023-11-08T01:03:59.128Z,77.94
2023-11-08T01:04:56.147Z,77.46
2023-11-08T01:05:52.939Z,77.01
2023-11-08T01:06:49.689Z,77.42
2023-11-08T01:07:46.471Z,78.95
2023-11-08T01:08:43.221Z,80.62
2023-11-08T01:09:39.952Z,80.57
2023-11-08T01:10:39.561Z,80.14
2023-11-08T01:11:37.071Z,79.40
2023-11-08T01:12:35.130Z,78.95
2023-11-08T01:13:32.628Z,78.50
2023-11-08T01:14:29.715Z,79.37
2023-11-08T01:15:26.647Z,81.47
2023-11-08T01:16:23.349Z,84.48
2023-11-08T01:17:20.176Z,86.27
2023-11-08T01:18:17.683Z,86.00
2023-11-08T01:19:15.039Z,85.87
2023-11-08T01:20:12.525Z,85.62
2023-11-08T01:21:09.284Z,86.98
2023-11-08T01:22:06.799Z,88.48
2023-11-08T01:23:04.263Z,86.94
2023-11-08T01:24:01.767Z,87.69
2023-11-08T01:24:58.483Z,87.92
2023-11-08T01:25:55.400Z,86.91
2023-11-08T01:26:52.108Z,88.04
2023-11-08T01:27:48.984Z,88.31
2023-11-08T01:28:46.428Z,86.71
2023-11-08T01:29:43.201Z,86.00
2023-11-08T01:30:40.137Z,84.14
2023-11-08T01:31:36.801Z,82.77
2023-11-08T01:32:33.560Z,81.34
2023-11-08T01:33:30.616Z,81.75
2023-11-08T01:34:27.426Z,84.64
2023-11-08T01:35:24.243Z,86.23
2023-11-08T01:36:21.008Z,85.09
2023-11-08T01:37:17.847Z,83.37
2023-11-08T01:38:14.496Z,82.76
2023-11-08T01:39:11.289Z,82.40
2023-11-08T01:40:09.341Z,80.73
2023-11-08T01:41:06.170Z,79.44
2023-11-08T01:42:03.396Z,78.30
2023-11-08T01:43:00.127Z,80.39
2023-11-08T01:44:01.292Z,83.13
2023-11-08T01:44:58.011Z,82.02
2023-11-08T01:46:05.254Z,81.37
2023-11-08T01:47:04.058Z,81.53
2023-11-08T01:48:00.872Z,81.01
2023-11-08T01:49:00.172Z,81.59
2023-11-08T01:49:57.043Z,82.39
2023-11-08T01:50:53.866Z,82.38
2023-11-08T01:51:50.998Z,82.09
2023-11-08T01:52:47.882Z,80.18
2023-11-08T01:53:44.812Z,77.86
2023-11-08T01:54:46.564Z,76.37
2023-11-08T01:55:43.738Z,77.59
2023-11-08T01:56:45.538Z,79.74
2023-11-08T01:57:42.605Z,81.21
2023-11-08T01:58:39.881Z,84.37
2023-11-08T01:59:37.002Z,84.83
2023-11-08T02:00:36.807Z,83.52
2023-11-08T02:01:33.603Z,82.40
2023-11-08T02:02:30.398Z,81.92
2023-11-08T02:03:28.998Z,82.23
2023-11-08T02:04:27.702Z,83.61
2023-11-08T02:05:25.819Z,82.99
2023-11-08T02:06:23.225Z,81.99
2023-11-08T02:07:19.931Z,80.73
2023-11-08T02:08:19.926Z,79.01
2023-11-08T02:09:18.208Z,79.74
2023-11-08T02:10:15.725Z,80.57
2023-11-08T02:11:14.216Z,80.14
2023-11-08T02:12:12.892Z,79.70
2023-11-08T02:13:09.712Z,79.48
2023-11-08T02:14:06.709Z,82.18
2023-11-08T02:15:05.302Z,82.21
2023-11-08T02:16:03.181Z,82.25
2023-11-08T02:16:59.883Z,81.12
2023-11-08T02:17:56.608Z,81.69
2023-11-08T02:18:53.369Z,81.12
2023-11-08T02:19:50.124Z,79.25
2023-11-08T02:20:47.109Z,78.76
2023-11-08T02:21:43.804Z,78.97
2023-11-08T02:22:40.472Z,79.27
2023-11-08T02:23:37.716Z,78.47
2023-11-08T02:24:34.502Z,78.05
2023-11-08T02:25:31.636Z,78.48
2023-11-08T02:26:28.308Z,79.13
2023-11-08T02:27:25.021Z,78.75
2023-11-08T02:28:22.510Z,79.17
2023-11-08T02:29:21.373Z,79.70
2023-11-08T02:30:18.716Z,79.87
2023-11-08T02:31:17.119Z,80.95
2023-11-08T02:32:13.823Z,81.37
2023-11-08T02:33:10.796Z,81.91
2023-11-08T02:34:10.851Z,82.03
2023-11-08T02:35:07.995Z,81.60
2023-11-08T02:36:05.250Z,82.83
2023-11-08T02:37:02.118Z,83.60
2023-11-08T02:37:58.758Z,84.54
2023-11-08T02:38:57.108Z,84.95
2023-11-08T02:39:54.029Z,85.20
2023-11-08T02:40:50.872Z,86.20
2023-11-08T02:41:48.994Z,85.02
2023-11-08T02:42:47.074Z,83.13
2023-11-08T02:43:45.063Z,82.08
2023-11-08T02:44:41.718Z,81.32
2023-11-08T02:45:38.849Z,80.84
2023-11-08T02:46:36.361Z,83.26
2023-11-08T02:47:33.096Z,83.46
2023-11-08T02:48:30.042Z,84.45
2023-11-08T02:49:32.476Z,83.61
2023-11-08T02:50:29.761Z,83.02
2023-11-08T02:51:29.862Z,83.90
2023-11-08T02:52:26.895Z,85.09
2023-11-08T02:53:23.645Z,85.59
2023-11-08T02:54:20.327Z,86.09
2023-11-08T02:55:17.103Z,84.69
2023-11-08T02:56:14.270Z,82.50
2023-11-08T02:57:10.995Z,81.45
2023-11-08T02:58:07.816Z,81.44
2023-11-08T02:59:04.534Z,82.43
2023-11-08T03:00:04.929Z,83.07
2023-11-08T03:01:01.608Z,82.95
2023-11-08T03:01:58.755Z,82.50
2023-11-08T03:02:56.224Z,82.00
2023-11-08T03:03:52.998Z,81.55
2023-11-08T03:04:49.884Z,80.64
2023-11-08T03:05:46.715Z,79.84
2023-11-08T03:06:44.985Z,79.99
2023-11-08T03:07:43.259Z,79.31
2023-11-08T03:08:40.041Z,80.29
2023-11-08T03:09:36.805Z,81.67
2023-11-08T03:10:35.793Z,81.86
2023-11-08T03:11:32.434Z,82.51
2023-11-08T03:12:30.171Z,82.98
2023-11-08T03:13:27.118Z,82.73
2023-11-08T03:14:23.953Z,82.13
2023-11-08T03:15:24.978Z,82.08
2023-11-08T03:16:22.321Z,84.11
2023-11-08T03:17:19.621Z,85.14
2023-11-08T03:18:19.159Z,85.67
2023-11-08T03:19:15.972Z,85.03
2023-11-08T03:20:16.914Z,83.82
2023-11-08T03:21:13.626Z,84.23
2023-11-08T03:22:13.944Z,84.54
2023-11-08T03:23:10.664Z,84.74
2023-11-08T03:24:07.641Z,84.80
2023-11-08T03:25:04.589Z,84.48
2023-11-08T03:26:01.241Z,84.40
2023-11-08T03:26:58.009Z,83.98
2023-11-08T03:27:54.646Z,84.06
2023-11-08T03:28:51.347Z,82.58
2023-11-08T03:29:48.006Z,81.81
2023-11-08T03:30:45.266Z,80.80
2023-11-08T03:31:41.917Z,82.15
2023-11-08T03:32:38.712Z,83.57
2023-11-08T03:33:37.004Z,82.34
2023-11-08T03:34:34.503Z,81.54
2023-11-08T03:35:31.223Z,83.60
2023-11-08T03:36:30.193Z,84.07
2023-11-08T03:37:27.018Z,83.21
2023-11-08T03:38:23.639Z,82.58
2023-11-08T03:39:20.504Z,82.33
2023-11-08T03:40:18.636Z,82.52
2023-11-08T03:41:16.014Z,83.66
2023-11-08T03:42:12.714Z,84.58
2023-11-08T03:43:09.413Z,83.60
2023-11-08T03:44:06.994Z,83.94
2023-11-08T03:45:05.362Z,83.62
2023-11-08T03:46:02.071Z,83.39
2023-11-08T03:46:58.891Z,84.22
2023-11-08T03:47:55.595Z,84.74
2023-11-08T03:48:56.216Z,83.88
2023-11-08T03:49:53.001Z,83.15
2023-11-08T03:50:49.678Z,83.97
2023-11-08T03:51:46.337Z,83.65
2023-11-08T03:52:43.115Z,84.75
2023-11-08T03:53:39.827Z,84.51
2023-11-08T03:54:36.605Z,83.91
2023-11-08T03:55:34.170Z,83.02
2023-11-08T03:56:31.318Z,83.64
2023-11-08T03:57:29.521Z,84.86
2023-11-08T03:58:26.410Z,84.96
2023-11-08T03:59:23.100Z,83.86
2023-11-08T04:00:19.990Z,83.54
2023-11-08T04:01:17.545Z,83.68
2023-11-08T04:02:14.263Z,84.36
2023-11-08T04:03:10.919Z,84.59
2023-11-08T04:04:07.605Z,84.49
2023-11-08T04:05:04.792Z,85.56
2023-11-08T04:06:01.773Z,85.64
2023-11-08T04:06:58.645Z,86.21
2023-11-08T04:07:55.301Z,86.34
2023-11-08T04:08:52.035Z,85.98
2023-11-08T04:09:49.340Z,85.49
2023-11-08T04:10:46.124Z,85.58
2023-11-08T04:11:42.802Z,84.95
2023-11-08T04:12:39.626Z,85.64
2023-11-08T04:13:36.359Z,84.27
2023-11-08T04:14:32.994Z,84.13
2023-11-08T04:15:31.103Z,83.33
2023-11-08T04:16:27.851Z,82.16
2023-11-08T04:17:24.951Z,81.50
2023-11-08T04:18:21.698Z,81.05
2023-11-08T04:19:18.344Z,80.37
2023-11-08T04:20:15.840Z,80.21
2023-11-08T04:21:12.528Z,80.37
2023-11-08T04:22:11.014Z,80.54
2023-11-08T04:23:07.883Z,80.10
2023-11-08T04:24:04.935Z,79.54
2023-11-08T04:25:01.542Z,78.92
2023-11-08T04:25:58.215Z,78.58
2023-11-08T04:26:54.920Z,78.23
2023-11-08T04:27:51.667Z,78.20
2023-11-08T04:28:48.368Z,78.50
2023-11-08T04:29:45.034Z,78.76
2023-11-08T04:30:41.661Z,78.16
2023-11-08T04:31:38.317Z,77.96
2023-11-08T04:32:35.114Z,78.15
2023-11-08T04:33:31.964Z,78.06
2023-11-08T04:34:29.943Z,77.33
2023-11-08T04:35:26.664Z,77.49
2023-11-08T04:36:23.375Z,77.27
2023-11-08T04:37:20.167Z,77.57
2023-11-08T04:38:16.930Z,77.46
2023-11-08T04:39:17.115Z,77.38
2023-11-08T04:40:13.940Z,76.59
2023-11-08T04:41:13.709Z,76.71
2023-11-08T04:42:10.482Z,76.45
2023-11-08T04:43:07.428Z,76.46
2023-11-08T04:44:04.441Z,76.13
2023-11-08T04:45:01.160Z,75.59
2023-11-08T04:45:57.849Z,75.42
2023-11-08T04:46:54.500Z,75.27
2023-11-08T04:47:51.258Z,74.78
2023-11-08T04:48:48.294Z,74.77
2023-11-08T04:49:49.313Z,74.06
2023-11-08T04:50:45.989Z,74.02
2023-11-08T04:51:42.928Z,74.74
2023-11-08T04:52:40.181Z,74.70
2023-11-08T04:53:36.870Z,74.13
2023-11-08T04:54:43.921Z,72.62
2023-11-08T04:55:44.622Z,73.32
2023-11-08T04:56:42.743Z,73.00
2023-11-08T04:57:39.446Z,73.56
2023-11-08T04:58:36.125Z,72.75
2023-11-08T04:59:34.113Z,73.45
2023-11-08T05:00:30.744Z,72.91
2023-11-08T05:01:29.706Z,71.07
2023-11-08T05:02:26.865Z,71.29
2023-11-08T05:03:24.020Z,70.65
2023-11-08T05:04:20.733Z,70.94
2023-11-08T05:05:17.493Z,71.14
2023-11-08T05:06:14.203Z,71.34
2023-11-08T05:07:10.969Z,69.88
2023-11-08T05:08:07.696Z,70.46
2023-11-08T05:09:04.441Z,71.37
2023-11-08T05:10:01.233Z,72.50
2023-11-08T05:10:57.987Z,72.49
2023-11-08T05:11:54.729Z,71.04
2023-11-08T05:12:52.607Z,69.38
2023-11-08T05:13:49.948Z,70.56
2023-11-08T05:14:47.183Z,69.45
2023-11-08T05:15:44.397Z,68.83
2023-11-08T05:16:41.104Z,70.43
2023-11-08T05:17:38.828Z,69.02
2023-11-08T05:18:35.698Z,69.77
2023-11-08T05:19:33.027Z,69.58
2023-11-08T05:20:30.929Z,68.16
2023-11-08T05:21:27.913Z,67.79
2023-11-08T05:22:24.964Z,68.91
2023-11-08T05:23:21.695Z,69.33
2023-11-08T05:24:18.909Z,68.66
2023-11-08T05:25:16.597Z,70.10
2023-11-08T05:26:13.402Z,70.04
2023-11-08T05:27:12.906Z,69.92
2023-11-08T05:28:09.987Z,68.62
2023-11-08T05:29:06.742Z,70.46
2023-11-08T05:30:06.060Z,70.82
2023-11-08T05:31:02.808Z,71.41
2023-11-08T05:32:00.278Z,71.17
2023-11-08T05:32:57.237Z,70.16
2023-11-08T05:33:54.276Z,68.53
2023-11-08T05:34:51.240Z,70.13
2023-11-08T05:35:47.936Z,69.79
2023-11-08T05:36:44.649Z,69.60
2023-11-08T05:37:44.113Z,68.88
2023-11-08T05:38:41.181Z,68.26
2023-11-08T05:39:37.905Z,70.34
2023-11-08T05:40:35.636Z,70.50
2023-11-08T05:41:32.463Z,70.16
2023-11-08T05:42:29.652Z,70.90
2023-11-08T05:43:27.040Z,71.88
2023-11-08T05:44:25.639Z,73.70
2023-11-08T05:45:22.915Z,74.37
2023-11-08T05:46:19.628Z,72.85
2023-11-08T05:47:16.439Z,72.04
2023-11-08T05:48:13.180Z,70.67
2023-11-08T05:49:10.249Z,71.11
2023-11-08T05:50:11.228Z,71.15
2023-11-08T05:51:07.924Z,70.01
2023-11-08T05:52:04.913Z,70.47
2023-11-08T05:53:01.778Z,71.34
2023-11-08T05:53:58.525Z,71.87
2023-11-08T05:54:55.812Z,72.98
2023-11-08T05:55:52.520Z,73.83
2023-11-08T05:56:49.416Z,72.68
2023-11-08T05:57:46.216Z,71.18
2023-11-08T05:58:42.941Z,70.07
2023-11-08T05:59:42.283Z,69.04
2023-11-08T06:00:38.976Z,66.61
2023-11-08T06:01:35.643Z,66.34
2023-11-08T06:02:32.386Z,67.18
2023-11-08T06:03:29.395Z,67.27
2023-11-08T06:04:26.389Z,67.33
2023-11-08T06:05:23.741Z,66.26
2023-11-08T06:06:21.314Z,70.94
2023-11-08T06:07:18.185Z,71.13
2023-11-08T06:08:14.863Z,72.49
2023-11-08T06:09:14.529Z,71.30
2023-11-08T06:10:13.071Z,71.99
2023-11-08T06:11:09.888Z,73.52
2023-11-08T06:12:07.412Z,72.88
2023-11-08T06:13:04.141Z,71.45
2023-11-08T06:14:00.922Z,70.13
2023-11-08T06:14:57.607Z,72.44
2023-11-08T06:15:54.384Z,70.94
2023-11-08T06:16:53.174Z,71.33
2023-11-08T06:17:53.784Z,69.84
2023-11-08T06:18:50.715Z,70.34
2023-11-08T06:19:48.737Z,70.06
2023-11-08T06:20:45.437Z,69.51
2023-11-08T06:21:42.225Z,68.42
2023-11-08T06:22:39.382Z,68.17
2023-11-08T06:23:37.102Z,68.57
2023-11-08T06:24:33.811Z,68.93
2023-11-08T06:25:31.553Z,69.39
2023-11-08T06:26:28.535Z,69.88
2023-11-08T06:27:25.224Z,70.74
2023-11-08T06:28:22.105Z,69.02
2023-11-08T06:29:18.775Z,68.41
2023-11-08T06:30:17.144Z,70.26
2023-11-08T06:31:14.678Z,70.97
2023-11-08T06:32:11.368Z,68.67
2023-11-08T06:33:09.003Z,69.78
2023-11-08T06:34:05.826Z,69.68
2023-11-08T06:35:03.856Z,70.27
2023-11-08T06:36:01.006Z,70.60
2023-11-08T06:36:58.858Z,70.98
2023-11-08T06:37:55.598Z,70.92
2023-11-08T06:38:52.362Z,71.73
2023-11-08T06:39:49.177Z,72.43
2023-11-08T06:40:45.820Z,72.47
2023-11-08T06:41:43.402Z,72.83
2023-11-08T06:42:40.092Z,73.42
2023-11-08T06:43:36.866Z,72.69
2023-11-08T06:44:34.432Z,72.09
2023-11-08T06:45:32.066Z,71.67
2023-11-08T06:46:28.664Z,73.82
2023-11-08T06:47:25.483Z,73.07
2023-11-08T06:48:22.648Z,71.61
2023-11-08T06:49:19.673Z,74.14
2023-11-08T06:50:16.640Z,75.39
2023-11-08T06:51:13.586Z,76.70
2023-11-08T06:52:10.529Z,77.45
2023-11-08T06:53:07.191Z,77.26
2023-11-08T06:54:03.999Z,78.13
2023-11-08T06:55:00.820Z,79.10
2023-11-08T06:55:59.225Z,79.92
2023-11-08T06:56:55.851Z,77.85
2023-11-08T06:57:52.599Z,78.83
2023-11-08T06:58:49.341Z,80.28
2023-11-08T06:59:46.614Z,81.00
2023-11-08T07:00:44.213Z,81.56
2023-11-08T07:01:42.605Z,80.22
2023-11-08T07:02:39.296Z,79.25
2023-11-08T07:03:36.025Z,80.95
2023-11-08T07:04:32.961Z,78.68
2023-11-08T07:05:37.958Z,77.01
2023-11-08T07:06:35.949Z,82.28
2023-11-08T07:07:34.165Z,82.85
2023-11-08T07:08:31.103Z,81.64
2023-11-08T07:09:27.778Z,81.60
2023-11-08T07:10:24.404Z,82.42
2023-11-08T07:11:21.024Z,85.25
2023-11-08T07:12:17.782Z,86.04
2023-11-08T07:13:14.427Z,87.61
2023-11-08T07:14:11.330Z,87.99
2023-11-08T07:15:08.841Z,88.72
2023-11-08T07:16:07.800Z,91.57
2023-11-08T07:17:04.843Z,89.97
2023-11-08T07:18:01.860Z,89.95
2023-11-08T07:18:58.883Z,90.08
2023-11-08T07:19:55.591Z,89.45
2023-11-08T07:20:52.318Z,86.70
2023-11-08T07:21:49.088Z,86.09
2023-11-08T07:22:45.692Z,87.99
2023-11-08T07:23:42.283Z,85.92
2023-11-08T07:24:39.046Z,85.64
2023-11-08T07:25:36.045Z,85.67
2023-11-08T07:26:32.704Z,89.03
2023-11-08T07:27:29.479Z,86.36
2023-11-08T07:28:26.142Z,87.22
2023-11-08T07:29:23.590Z,89.19
2023-11-08T07:30:20.424Z,91.07
2023-11-08T07:31:17.321Z,92.13
2023-11-08T07:32:15.745Z,90.74
2023-11-08T07:33:15.775Z,92.13
2023-11-08T07:34:15.370Z,89.29
2023-11-08T07:35:13.518Z,92.25
2023-11-08T07:36:10.282Z,93.91
2023-11-08T07:37:06.941Z,95.95
2023-11-08T07:38:03.657Z,96.81
2023-11-08T07:39:06.077Z,97.65
2023-11-08T07:40:04.015Z,97.45
2023-11-08T07:41:02.660Z,96.97
2023-11-08T07:41:59.992Z,97.73
2023-11-08T07:42:57.152Z,95.95
2023-11-08T07:43:54.179Z,95.81
2023-11-08T07:44:51.486Z,97.10
2023-11-08T07:45:50.816Z,95.34
2023-11-08T07:46:47.467Z,96.26
2023-11-08T07:47:44.707Z,95.41
2023-11-08T07:48:41.613Z,96.70
2023-11-08T07:49:39.522Z,99.33
2023-11-08T07:50:36.164Z,100.00
2023-11-08T07:51:32.844Z,100.00
2023-11-08T07:52:30.044Z,100.00
2023-11-08T07:53:26.825Z,100.00
2023-11-08T07:54:23.443Z,100.00
2023-11-08T07:55:20.077Z,100.00
2023-11-08T07:56:17.004Z,100.00
2023-11-08T07:57:13.597Z,100.00
2023-11-08T07:58:10.282Z,100.00
2023-11-08T07:59:07.239Z,100.00
2023-11-08T08:00:04.386Z,100.00
2023-11-08T08:01:02.292Z,100.00
2023-11-08T08:01:58.978Z,100.00
2023-11-08T08:02:56.128Z,100.00
2023-11-08T08:03:52.849Z,97.85
2023-11-08T08:04:50.255Z,96.92
2023-11-08T08:05:47.122Z,97.79
2023-11-08T08:06:43.848Z,97.45
2023-11-08T08:07:40.894Z,98.20
2023-11-08T08:08:37.567Z,99.63
2023-11-08T08:09:34.268Z,100.00
2023-11-08T08:10:33.385Z,100.00
2023-11-08T08:11:30.096Z,100.00
2023-11-08T08:12:30.903Z,100.00
2023-11-08T08:13:33.252Z,100.00
2023-11-08T08:14:30.431Z,100.00
2023-11-08T08:15:27.164Z,100.00
2023-11-08T08:16:23.884Z,100.00
2023-11-08T08:17:20.970Z,100.00
2023-11-08T08:18:18.993Z,100.00
2023-11-08T08:19:15.820Z,100.00
2023-11-08T08:20:13.077Z,100.00
2023-11-08T08:21:09.758Z,100.00
2023-11-08T08:22:07.155Z,100.00
2023-11-08T08:23:03.974Z,100.00
2023-11-08T08:24:06.951Z,100.00
2023-11-08T08:25:04.941Z,99.37
2023-11-08T08:26:01.676Z,99.96
2023-11-08T08:26:59.243Z,100.00
2023-11-08T08:27:56.668Z,100.00
2023-11-08T08:28:53.361Z,100.00
2023-11-08T08:29:50.015Z,100.00
2023-11-08T08:30:46.838Z,100.00
2023-11-08T08:31:43.502Z,100.00
2023-11-08T08:32:42.284Z,100.00
2023-11-08T08:33:39.018Z,100.00
2023-11-08T08:34:35.778Z,100.00
2023-11-08T08:35:33.669Z,100.00
2023-11-08T08:36:33.155Z,100.00
2023-11-08T08:37:31.028Z,100.00
2023-11-08T08:38:27.848Z,100.00
2023-11-08T08:39:29.001Z,100.00
2023-11-08T08:40:27.054Z,100.00
2023-11-08T08:41:23.802Z,100.00
2023-11-08T08:42:20.626Z,100.00
2023-11-08T08:43:21.457Z,100.00
2023-11-08T08:44:18.986Z,100.00
2023-11-08T08:45:15.761Z,100.00
2023-11-08T08:46:12.392Z,100.00
2023-11-08T08:47:09.095Z,98.45
2023-11-08T08:48:06.025Z,97.65
2023-11-08T08:49:02.977Z,97.53
2023-11-08T08:50:00.294Z,99.76
2023-11-08T08:50:57.036Z,99.62
2023-11-08T08:51:53.966Z,99.75
2023-11-08T08:52:50.710Z,100.00
2023-11-08T08:53:47.448Z,100.00
2023-11-08T08:54:44.212Z,100.00
2023-11-08T08:55:42.170Z,100.00
2023-11-08T08:56:41.230Z,100.00
2023-11-08T08:57:38.442Z,100.00
2023-11-08T08:58:36.756Z,100.00
2023-11-08T08:59:33.692Z,100.00
2023-11-08T09:00:31.468Z,100.00
2023-11-08T09:01:28.209Z,100.00
2023-11-08T09:02:26.619Z,98.69
2023-11-08T09:03:24.286Z,97.86
2023-11-08T09:04:21.337Z,96.43
2023-11-08T09:05:20.541Z,94.88
2023-11-08T09:06:20.730Z,93.18
2023-11-08T09:07:17.457Z,95.27
2023-11-08T09:08:14.128Z,97.20
2023-11-08T09:09:14.777Z,96.43
2023-11-08T09:10:12.065Z,96.81
2023-11-08T09:11:11.582Z,98.86
2023-11-08T09:12:09.052Z,97.25
2023-11-08T09:13:06.618Z,96.38
2023-11-08T09:14:03.995Z,95.94
2023-11-08T09:15:02.724Z,96.93
2023-11-08T09:16:01.874Z,97.15
2023-11-08T09:16:58.774Z,96.33
2023-11-08T09:17:55.518Z,96.53
2023-11-08T09:18:52.342Z,95.50
2023-11-08T09:19:49.318Z,96.72
2023-11-08T09:20:46.044Z,98.08
2023-11-08T09:21:44.177Z,98.45
2023-11-08T09:22:42.378Z,96.78
2023-11-08T09:23:39.807Z,96.63
2023-11-08T09:24:36.544Z,96.29
2023-11-08T09:25:34.779Z,96.48
2023-11-08T09:26:31.546Z,96.10
2023-11-08T09:27:28.214Z,95.34
2023-11-08T09:28:25.323Z,94.25
2023-11-08T09:29:22.089Z,94.69
2023-11-08T09:30:18.867Z,95.98
2023-11-08T09:31:17.877Z,94.81
2023-11-08T09:32:14.725Z,95.31
2023-11-08T09:33:11.707Z,96.40
2023-11-08T09:34:08.728Z,96.20
2023-11-08T09:35:06.167Z,96.75
2023-11-08T09:36:03.055Z,95.57
2023-11-08T09:37:01.647Z,95.28
2023-11-08T09:38:00.040Z,95.86
2023-11-08T09:39:07.927Z,95.61
2023-11-08T09:40:12.197Z,96.17
2023-11-08T09:41:10.152Z,95.79
2023-11-08T09:42:07.471Z,96.12
2023-11-08T09:43:06.418Z,97.31
2023-11-08T09:44:04.413Z,98.07
2023-11-08T09:45:01.636Z,96.84
2023-11-08T09:45:59.161Z,95.71
2023-11-08T09:46:56.993Z,95.06
2023-11-08T09:47:53.798Z,94.62
2023-11-08T09:48:51.663Z,96.93
2023-11-08T09:49:53.871Z,97.76
2023-11-08T09:50:52.774Z,95.43
2023-11-08T09:51:49.918Z,95.34
2023-11-08T09:52:46.631Z,96.58
2023-11-08T09:53:44.477Z,97.65
2023-11-08T09:54:43.207Z,99.91
2023-11-08T09:55:40.025Z,100.00
2023-11-08T09:56:36.778Z,100.00
2023-11-08T09:57:36.607Z,100.00
2023-11-08T09:58:33.777Z,100.00
2023-11-08T09:59:33.135Z,100.00
2023-11-08T10:00:31.849Z,100.00
2023-11-08T10:01:31.245Z,100.00
2023-11-08T10:02:29.727Z,100.00
2023-11-08T10:03:27.218Z,100.00
2023-11-08T10:04:32.124Z,99.94
2023-11-08T10:05:38.307Z,100.00
2023-11-08T10:06:36.369Z,100.00
2023-11-08T10:07:33.728Z,100.00
2023-11-08T10:08:30.618Z,100.00
2023-11-08T10:09:32.682Z,100.00
2023-11-08T10:10:30.131Z,100.00
2023-11-08T10:12:27.057Z,100.00
2023-11-08T10:13:41.809Z,100.00
2023-11-08T10:14:44.653Z,99.43
2023-11-08T10:15:41.323Z,100.00
2023-11-08T10:16:55.242Z,100.00
2023-11-08T10:19:31.788Z,100.00
2023-11-08T10:19:37.228Z,100.00
2023-11-08T10:20:36.707Z,100.00
2023-11-08T10:21:34.205Z,100.00
2023-11-08T10:22:31.288Z,100.00
2023-11-08T10:23:30.085Z,100.00
2023-11-08T10:24:26.868Z,100.00
2023-11-08T10:25:27.302Z,100.00
2023-11-08T10:26:26.739Z,100.00
2023-11-08T10:27:24.610Z,100.00
2023-11-08T10:28:22.038Z,100.00
2023-11-08T10:29:20.443Z,100.00
2023-11-08T10:30:20.265Z,100.00
2023-11-08T10:31:30.970Z,100.00
2023-11-08T10:32:27.792Z,100.00
2023-11-08T10:33:24.483Z,100.00
2023-11-08T10:34:26.240Z,100.00
2023-11-08T10:35:23.367Z,100.00
2023-11-08T10:36:31.993Z,100.00
2023-11-08T10:37:29.917Z,100.00
2023-11-08T10:38:26.540Z,100.00
2023-11-08T10:39:23.270Z,100.00
2023-11-08T10:40:22.506Z,100.00
2023-11-08T10:41:19.302Z,100.00
2023-11-08T10:42:16.113Z,100.00
2023-11-08T10:43:22.062Z,100.00
2023-11-08T10:44:26.546Z,100.00
2023-11-08T10:45:24.988Z,100.00
2023-11-08T10:46:22.556Z,100.00
2023-11-08T10:47:19.386Z,100.00
2023-11-08T10:48:16.580Z,100.00
2023-11-08T10:49:13.312Z,100.00
2023-11-08T10:50:10.264Z,100.00
2023-11-08T10:51:06.996Z,100.00
2023-11-08T10:52:05.073Z,100.00
2023-11-08T10:53:01.868Z,100.00
2023-11-08T10:53:58.791Z,100.00
2023-11-08T10:54:55.457Z,100.00
2023-11-08T10:55:56.628Z,100.00
2023-11-08T10:56:55.989Z,100.00
2023-11-08T10:58:02.410Z,100.00
2023-11-08T10:59:04.143Z,100.00
2023-11-08T11:00:02.387Z,100.00
2023-11-08T11:01:03.864Z,100.00
2023-11-08T11:02:00.689Z,100.00
2023-11-08T11:03:06.818Z,100.00
2023-11-08T11:04:07.230Z,100.00
2023-11-08T11:05:05.489Z,100.00
2023-11-08T11:06:04.820Z,100.00
2023-11-08T11:07:02.818Z,100.00
2023-11-08T11:08:01.856Z,100.00
2023-11-08T11:08:59.508Z,100.00
2023-11-08T11:09:56.454Z,100.00
2023-11-08T11:10:53.328Z,100.00
2023-11-08T11:12:00.205Z,100.00
2023-11-08T11:13:06.300Z,100.00
2023-11-08T11:14:14.699Z,100.00
2023-11-08T11:15:21.371Z,100.00
2023-11-08T11:16:31.491Z,100.00
2023-11-08T11:17:35.903Z,100.00
2023-11-08T11:18:41.023Z,100.00
2023-11-08T11:19:42.812Z,100.00
2023-11-08T11:20:45.989Z,100.00
2023-11-08T11:21:50.291Z,100.00
2023-11-08T11:22:47.033Z,100.00
2023-11-08T11:23:43.698Z,100.00
2023-11-08T11:24:43.569Z,100.00
2023-11-08T11:25:48.733Z,100.00
2023-11-08T11:26:47.479Z,100.00
2023-11-08T11:27:45.546Z,100.00
2023-11-08T11:28:56.481Z,100.00
2023-11-08T11:30:16.318Z,100.00
2023-11-08T11:31:44.618Z,100.00
2023-11-08T11:32:51.169Z,100.00
2023-11-08T11:33:48.041Z,100.00
2023-11-08T11:34:45.478Z,100.00
2023-11-08T11:35:51.455Z,100.00
2023-11-08T11:37:14.881Z,100.00
2023-11-08T11:38:25.098Z,100.00
2023-11-08T11:39:24.042Z,100.00
2023-11-08T11:40:20.771Z,100.00
2023-11-08T11:41:24.324Z,100.00
2023-11-08T11:42:27.317Z,100.00
2023-11-08T11:43:39.717Z,100.00
2023-11-08T11:44:37.823Z,100.00
2023-11-08T11:45:34.571Z,100.00
2023-11-08T11:46:31.406Z,100.00
2023-11-08T11:47:30.347Z,100.00
2023-11-08T11:48:33.452Z,100.00
2023-11-08T11:49:30.242Z,100.00
2023-11-08T11:50:28.456Z,100.00
2023-11-08T11:51:25.177Z,100.00
2023-11-08T11:52:23.445Z,100.00
2023-11-08T11:53:20.119Z,100.00
2023-11-08T11:54:17.084Z,100.00
2023-11-08T11:55:16.086Z,100.00
2023-11-08T11:56:12.745Z,100.00
2023-11-08T11:57:10.368Z,100.00
2023-11-08T11:58:11.051Z,100.00
2023-11-08T11:59:10.200Z,100.00
2023-11-08T12:00:11.002Z,100.00
2023-11-08T12:01:07.910Z,100.00
2023-11-08T12:02:04.988Z,100.00
2023-11-08T12:03:02.008Z,100.00
2023-11-08T12:04:00.425Z,100.00
2023-11-08T12:05:00.361Z,100.00
2023-11-08T12:05:57.906Z,100.00
2023-11-08T12:06:56.431Z,100.00
2023-11-08T12:07:54.092Z,100.00
2023-11-08T12:08:50.869Z,100.00
2023-11-08T12:09:49.637Z,100.00
2023-11-08T12:10:46.435Z,100.00
2023-11-08T12:11:49.548Z,100.00
2023-11-08T12:12:46.418Z,100.00
2023-11-08T12:13:54.510Z,100.00
2023-11-08T12:14:51.231Z,100.00
2023-11-08T12:16:00.707Z,100.00
2023-11-08T12:16:57.564Z,100.00
2023-11-08T12:17:55.226Z,100.00
2023-11-08T12:18:53.022Z,100.00
2023-11-08T12:19:50.482Z,100.00
2023-11-08T12:20:47.351Z,100.00
2023-11-08T12:21:48.640Z,100.00
2023-11-08T12:22:49.563Z,100.00
2023-11-08T12:23:50.648Z,100.00